Time;durP1;ratioP1;P1;durP2;ratioP2;P2;SDS_P1;SDS_P2;PMS_P1;PMS_P2;Temp;Humidity;BMP_temperature;BMP_pressure;BME280_temperature;BME280_humidity;BME280_pressure;Samples;Min_cycle;Max_cycle;Signal;HPM_P1;HPM_P2
2022/09/22 00:01:25;;;;;;;5.00;3.45;;;;;;;11.58;65.77;100297.72;4347832;32;34054;-84
2022/09/22 00:03:55;;;;;;;5.10;3.33;;;;;;;11.18;66.97;100290.38;4347896;32;34676;-85
2022/09/22 00:06:28;;;;;;;4.75;3.50;;;;;;;11.29;66.51;100298.50;4348086;32;34052;-86
2022/09/22 00:09:00;;;;;;;6.18;3.78;;;;;;;11.52;65.79;100298.69;4347634;32;33868;-79
2022/09/22 00:11:30;;;;;;;6.43;3.87;;;;;;;11.03;67.01;100294.41;4360906;32;34952;-82
2022/09/22 00:14:00;;;;;;;5.80;4.22;;;;;;;11.77;64.79;100299.16;4362994;32;33734;-83
2022/09/22 00:16:30;;;;;;;6.18;3.85;;;;;;;11.13;66.49;100284.84;4362990;32;33934;-85
2022/09/22 00:18:58;;;;;;;6.62;3.75;;;;;;;11.22;66.01;100286.94;4363177;32;33967;-84
2022/09/22 00:21:26;;;;;;;5.00;3.62;;;;;;;10.99;67.15;100279.69;4363125;32;34085;-85
2022/09/22 00:23:54;;;;;;;6.37;3.90;;;;;;;11.42;65.78;100291.94;4362936;32;33697;-83
2022/09/22 00:26:23;;;;;;;6.28;3.40;;;;;;;11.67;65.09;100294.34;4363011;32;34799;-86
2022/09/22 00:28:51;;;;;;;4.60;3.22;;;;;;;11.67;64.65;100288.09;4349554;32;33971;-81
2022/09/22 00:31:28;;;;;;;5.15;3.80;;;;;;;11.20;66.60;100283.63;4362540;32;35136;-84
2022/09/22 00:33:56;;;;;;;5.20;4.03;;;;;;;11.01;67.25;100274.81;4362891;32;34013;-75
2022/09/22 00:36:25;;;;;;;5.80;3.80;;;;;;;11.04;67.06;100281.69;4362913;32;33554;-79
2022/09/22 00:38:55;;;;;;;5.40;3.97;;;;;;;11.13;66.97;100277.50;4362613;32;34072;-74
2022/09/22 00:41:31;;;;;;;4.97;3.80;;;;;;;11.20;66.64;100274.66;4362880;32;34997;-86
2022/09/22 00:44:17;;;;;;;6.22;4.22;;;;;;;11.54;65.12;100282.97;4362621;32;34642;-85
2022/09/22 00:46:48;;;;;;;5.32;3.55;;;;;;;11.43;65.95;100280.03;4362843;32;34019;-82
2022/09/22 00:49:17;;;;;;;6.65;4.25;;;;;;;11.36;66.11;100281.22;4362627;32;33824;-72
2022/09/22 00:51:44;;;;;;;6.25;4.15;;;;;;;11.18;66.33;100276.78;4349326;32;35028;-82
2022/09/22 00:54:14;;;;;;;5.32;3.90;;;;;;;10.65;67.87;100270.50;4362962;32;33483;-86
2022/09/22 00:56:47;;;;;;;5.70;4.22;;;;;;;11.09;66.57;100273.63;4349047;32;33967;-86
2022/09/22 00:59:17;;;;;;;4.97;3.80;;;;;;;11.17;66.11;100270.53;4362828;32;34247;-84
2022/09/22 01:01:45;;;;;;;6.78;4.10;;;;;;;11.27;66.10;100268.03;4349226;32;34355;-77
2022/09/22 01:04:15;;;;;;;6.78;3.97;;;;;;;11.32;65.60;100267.31;4362906;32;33681;-85
2022/09/22 01:06:43;;;;;;;4.72;3.80;;;;;;;11.17;66.25;100273.25;4362577;32;34865;-86
2022/09/22 01:09:11;;;;;;;5.35;4.03;;;;;;;11.42;65.00;100267.50;4349106;32;34509;-84
2022/09/22 01:11:39;;;;;;;6.95;4.07;;;;;;;10.81;67.55;100261.63;4361737;32;34321;-82
2022/09/22 01:14:10;;;;;;;5.47;3.87;;;;;;;11.17;66.85;100264.28;4349079;32;34529;-84
2022/09/22 01:16:49;;;;;;;6.55;4.25;;;;;;;10.83;67.11;100262.22;4362376;32;34796;-81
2022/09/22 01:19:39;;;;;;;7.15;3.78;;;;;;;10.93;66.60;100255.34;4362622;32;35089;-84
2022/09/22 01:22:34;;;;;;;5.97;4.05;;;;;;;10.74;67.78;100246.53;4361779;32;34125;-74
2022/09/22 01:25:38;;;;;;;6.57;4.03;;;;;;;10.85;67.19;100248.41;4348698;32;33603;-83
2022/09/22 01:28:23;;;;;;;5.72;4.40;;;;;;;11.21;65.79;100252.69;4349108;32;34099;-77
2022/09/22 01:30:56;;;;;;;;;;;;;;;11.13;65.92;100249.53;4349506;32;34047;-85
2022/09/22 01:33:45;;;;;;;4.85;3.80;;;;;;;11.04;66.72;100246.38;4349033;32;34393;-75
2022/09/22 01:36:23;;;;;;;5.15;4.00;;;;;;;10.63;67.41;100243.59;4348992;32;33324;-73
2022/09/22 01:39:17;;;;;;;6.20;4.50;;;;;;;10.94;66.72;100257.81;4348954;32;34636;-73
2022/09/22 01:41:50;;;;;;;5.28;3.87;;;;;;;10.74;66.91;100260.09;4362251;32;35065;-83
2022/09/22 01:44:42;;;;;;;5.93;4.68;;;;;;;10.71;67.02;100263.28;4349017;32;34123;-86
2022/09/22 01:47:14;;;;;;;5.65;4.05;;;;;;;11.08;66.02;100261.94;4362127;32;33583;-85
2022/09/22 01:49:45;;;;;;;5.70;4.20;;;;;;;10.81;66.75;100267.06;4348855;32;33993;-78
2022/09/22 01:52:21;;;;;;;6.12;4.70;;;;;;;10.59;67.84;100269.53;4362515;32;34097;-86
2022/09/22 01:55:02;;;;;;;6.10;4.37;;;;;;;10.90;67.06;100266.69;4348603;32;34954;-86
2022/09/22 01:57:36;;;;;;;6.53;4.22;;;;;;;10.45;68.76;100268.97;4348869;32;34639;-85
2022/09/22 02:00:06;;;;;;;9.37;4.50;;;;;;;10.73;67.96;100264.69;4362443;32;34911;-72
2022/09/22 02:02:51;;;;;;;6.32;4.22;;;;;;;10.66;67.51;100253.97;4349314;32;33688;-84
2022/09/22 02:05:31;;;;;;;5.35;4.15;;;;;;;10.43;68.61;100262.94;4362033;32;35610;-85
2022/09/22 02:08:01;;;;;;;6.72;4.30;;;;;;;10.88;67.03;100256.91;4348733;32;34507;-85
2022/09/22 02:10:33;;;;;;;7.57;4.78;;;;;;;10.89;66.57;100257.72;4348667;32;34654;-85
2022/09/22 02:13:00;;;;;;;8.63;5.03;;;;;;;10.31;68.22;100253.97;4361088;32;35085;-83
2022/09/22 02:18:46;;;;;;;7.10;4.85;;;;;;;10.62;67.84;100250.06;4344928;32;34481;-86
2022/09/22 02:21:15;;;;;;;7.00;4.68;;;;;;;10.85;67.56;100256.56;4362326;32;33731;-83
2022/09/22 02:23:44;;;;;;;6.05;4.70;;;;;;;10.17;69.99;100260.63;4348650;32;34118;-85
2022/09/22 02:26:16;;;;;;;6.70;4.60;;;;;;;10.66;68.32;100258.56;4362222;32;34184;-84
2022/09/22 02:28:44;;;;;;;8.85;5.70;;;;;;;10.48;68.22;100258.72;4348789;32;33281;-86
2022/09/22 02:31:13;;;;;;;6.50;4.72;;;;;;;10.49;68.44;100254.91;4348706;32;34398;-80
2022/09/22 02:33:49;;;;;;;6.03;4.72;;;;;;;10.60;68.32;100257.63;4349165;32;34296;-73
2022/09/22 02:36:19;;;;;;;6.87;4.55;;;;;;;10.60;68.43;100256.78;4348842;32;34289;-85
2022/09/22 02:39:19;;;;;;;6.15;4.60;;;;;;;10.78;68.02;100253.97;4361912;32;33695;-82
2022/09/22 02:42:35;;;;;;;7.12;4.72;;;;;;;10.86;66.97;100250.91;4352483;32;34283;-84
2022/09/22 02:45:11;;;;;;;6.83;4.33;;;;;;;10.75;67.74;100253.59;4300714;33;34070;-77
2022/09/22 02:47:41;;;;;;;5.97;4.25;;;;;;;10.25;68.96;100254.88;4353493;32;34131;-85
2022/09/22 02:50:11;;;;;;;6.47;4.80;;;;;;;10.58;68.15;100256.19;4362119;32;34537;-80
2022/09/22 02:52:39;;;;;;;5.22;4.07;;;;;;;10.88;66.37;100256.06;4362033;32;33774;-84
2022/09/22 02:55:07;;;;;;;6.68;4.43;;;;;;;10.62;67.01;100257.37;4362050;32;35037;-75
2022/09/22 02:57:35;;;;;;;6.90;4.80;;;;;;;10.36;67.96;100255.97;4361832;32;34348;-84
2022/09/22 03:00:04;;;;;;;7.30;4.80;;;;;;;10.60;67.29;100260.31;4362073;32;33446;-85
2022/09/22 03:02:32;;;;;;;6.95;4.82;;;;;;;10.19;68.86;100253.91;4362119;32;33724;-86
2022/09/22 03:05:00;;;;;;;6.57;4.80;;;;;;;10.62;67.68;100254.66;4361647;32;34188;-85
2022/09/22 03:07:27;;;;;;;6.85;4.95;;;;;;;10.50;68.03;100245.72;4348416;32;33847;-74
2022/09/22 03:09:54;;;;;;;6.50;4.53;;;;;;;10.62;67.31;100246.53;4362227;32;33840;-85
2022/09/22 03:12:22;;;;;;;6.65;4.85;;;;;;;10.51;67.46;100241.94;4361569;32;33993;-84
2022/09/22 03:14:49;;;;;;;6.65;4.57;;;;;;;10.74;66.20;100241.94;4360900;32;34311;-86
2022/09/22 03:17:17;;;;;;;6.82;4.75;;;;;;;10.62;66.33;100249.25;4361552;32;34318;-84
2022/09/22 03:19:44;;;;;;;5.80;4.22;;;;;;;10.64;66.16;100245.22;4361958;32;33920;-87
2022/09/22 03:22:12;;;;;;;7.50;4.97;;;;;;;10.05;68.48;100249.78;4348390;32;33859;-78
2022/09/22 03:24:39;;;;;;;7.07;4.95;;;;;;;10.25;67.84;100255.69;4361679;32;33876;-73
2022/09/22 03:27:07;;;;;;;6.62;5.03;;;;;;;10.41;67.36;100250.66;4361505;32;33884;-75
2022/09/22 03:29:34;;;;;;;6.50;4.60;;;;;;;10.43;66.96;100251.25;4362025;32;33338;-87
2022/09/22 03:32:01;;;;;;;6.22;4.60;;;;;;;10.61;66.66;100258.47;4361803;32;34699;-88
2022/09/22 03:34:29;;;;;;;7.05;5.00;;;;;;;10.67;66.36;100252.91;4361289;32;35004;-83
2022/09/22 03:36:57;;;;;;;6.97;5.05;;;;;;;10.21;68.26;100248.25;4361642;32;34278;-85
2022/09/22 03:39:24;;;;;;;6.25;4.87;;;;;;;10.52;67.90;100255.28;4361487;32;34401;-86
2022/09/22 03:41:52;;;;;;;6.72;4.50;;;;;;;10.45;67.57;100247.25;4361378;32;34920;-88
2022/09/22 03:44:19;;;;;;;6.30;4.60;;;;;;;10.34;68.26;100247.25;4361326;32;35010;-84
2022/09/22 03:46:46;;;;;;;5.60;4.35;;;;;;;10.43;67.92;100238.53;4360488;32;34091;-74
2022/09/22 03:49:14;;;;;;;7.03;4.85;;;;;;;10.45;67.76;100241.00;4361348;32;33398;-81
2022/09/22 03:51:41;;;;;;;7.10;5.10;;;;;;;10.13;69.09;100241.31;4361804;32;33945;-88
2022/09/22 03:54:09;;;;;;;6.95;5.07;;;;;;;10.22;69.14;100244.50;4361287;32;35122;-86
2022/09/22 03:56:37;;;;;;;6.87;5.10;;;;;;;10.08;69.93;100238.44;4361263;32;33868;-87
2022/09/22 03:59:05;;;;;;;8.65;5.50;;;;;;;10.13;69.68;100237.75;4361526;32;34489;-74
2022/09/22 04:01:32;;;;;;;6.85;5.05;;;;;;;9.82;71.19;100234.28;4361457;32;34419;-87
2022/09/22 04:04:00;;;;;;;5.93;4.78;;;;;;;9.71;71.62;100244.03;4360971;32;35017;-86
2022/09/22 04:06:28;;;;;;;5.60;4.50;;;;;;;9.73;71.73;100239.19;4361402;32;34328;-79
2022/09/22 04:08:55;;;;;;;7.45;5.00;;;;;;;10.04;70.35;100240.81;4361320;32;33727;-80
2022/09/22 04:11:23;;;;;;;7.18;5.10;;;;;;;10.25;69.74;100244.03;4361052;32;34119;-78
2022/09/22 04:13:50;;;;;;;6.75;4.50;;;;;;;10.26;69.65;100237.56;4355273;32;165205;-79
2022/09/22 04:16:18;;;;;;;7.35;4.60;;;;;;;10.48;68.07;100239.72;4361204;32;35110;-81
2022/09/22 04:18:45;;;;;;;7.07;4.75;;;;;;;10.57;67.26;100243.72;4361094;32;34392;-81
2022/09/22 04:21:13;;;;;;;6.15;4.60;;;;;;;10.52;67.37;100240.87;4360913;32;33958;-81
2022/09/22 04:23:40;;;;;;;7.28;4.95;;;;;;;10.33;68.34;100237.47;4361237;32;34955;-80
2022/09/22 04:26:08;;;;;;;7.12;4.43;;;;;;;10.37;67.68;100241.38;4360993;32;34063;-82
2022/09/22 04:28:35;;;;;;;6.18;4.65;;;;;;;10.07;69.03;100243.06;4360969;32;33754;-82
2022/09/22 04:31:03;;;;;;;6.95;4.85;;;;;;;10.53;67.53;100245.25;4361167;32;33911;-81
2022/09/22 04:33:31;;;;;;;7.32;5.22;;;;;;;10.29;67.67;100247.94;4360438;32;34300;-79
2022/09/22 04:35:58;;;;;;;6.30;4.80;;;;;;;10.11;68.93;100237.16;4360655;32;34856;-79
2022/09/22 04:38:26;;;;;;;7.30;4.85;;;;;;;10.44;67.98;100247.50;4360898;32;33821;-83
2022/09/22 04:40:53;;;;;;;6.55;4.80;;;;;;;10.17;68.70;100247.91;4360991;32;33503;-79
2022/09/22 04:43:21;;;;;;;7.60;5.15;;;;;;;10.43;67.65;100257.53;4360680;32;35017;-82
2022/09/22 04:45:48;;;;;;;7.93;5.30;;;;;;;10.09;68.38;100255.56;4360818;32;33862;-76
2022/09/22 04:48:16;;;;;;;8.65;5.30;;;;;;;10.34;67.57;100255.38;4347607;32;33696;-74
2022/09/22 04:50:43;;;;;;;7.20;5.53;;;;;;;10.16;68.54;100261.69;4361756;32;33867;-86
2022/09/22 04:53:14;;;;;;;8.75;5.65;;;;;;;10.20;68.41;100254.75;4361639;32;34972;-73
2022/09/22 04:55:42;;;;;;;7.95;5.97;;;;;;;10.03;69.08;100251.91;4348188;32;35025;-87
2022/09/22 04:58:09;;;;;;;6.47;5.12;;;;;;;10.30;68.55;100265.84;4363210;32;34533;-78
2022/09/22 05:00:37;;;;;;;9.13;5.82;;;;;;;10.16;69.58;100253.56;4363678;32;33750;-76
2022/09/22 05:03:09;;;;;;;8.73;5.97;;;;;;;10.39;68.51;100253.63;4363836;32;34124;-78
2022/09/22 05:05:37;;;;;;;7.80;5.40;;;;;;;10.05;69.53;100257.91;4363701;32;33899;-83
2022/09/22 05:08:05;;;;;;;8.43;5.70;;;;;;;10.27;69.23;100256.28;4363799;32;33799;-78
2022/09/22 05:10:34;;;;;;;8.20;5.57;;;;;;;10.39;68.35;100252.81;4363401;32;34603;-82
2022/09/22 05:13:02;;;;;;;10.00;5.68;;;;;;;10.26;69.27;100251.94;4363623;32;34255;-77
2022/09/22 05:15:31;;;;;;;6.80;5.47;;;;;;;9.93;70.59;100246.22;4362607;32;33749;-77
2022/09/22 05:17:59;;;;;;;8.70;6.15;;;;;;;10.24;69.20;100247.81;4363778;32;34566;-77
2022/09/22 05:20:26;;;;;;;10.23;5.82;;;;;;;10.59;67.94;100252.44;4363588;32;34875;-83
2022/09/22 05:22:54;;;;;;;8.15;5.75;;;;;;;10.67;67.41;100252.09;4363277;32;35180;-78
2022/09/22 05:25:21;;;;;;;7.65;5.80;;;;;;;10.44;68.18;100248.31;4363537;32;34008;-83
2022/09/22 05:27:50;;;;;;;8.18;6.22;;;;;;;10.33;68.97;100253.75;4363496;32;33574;-77
2022/09/22 05:30:19;;;;;;;9.90;6.90;;;;;;;10.66;68.02;100247.72;4362749;32;34074;-75
2022/09/22 05:32:47;;;;;;;10.07;6.40;;;;;;;10.39;69.62;100250.91;4363230;32;34210;-79
2022/09/22 05:35:17;;;;;;;9.45;6.53;;;;;;;10.28;71.85;100251.72;4350054;32;34251;-83
2022/09/22 05:37:46;;;;;;;7.68;6.32;;;;;;;11.04;69.18;100246.38;4350029;32;34695;-83
2022/09/22 05:40:14;;;;;;;8.35;6.55;;;;;;;11.17;69.62;100259.69;4363109;32;34797;-77
2022/09/22 05:42:44;;;;;;;7.97;6.32;;;;;;;11.52;66.77;100252.47;4363427;32;34309;-77
2022/09/22 05:45:12;;;;;;;7.40;5.47;;;;;;;11.83;65.81;100257.41;4363116;32;34289;-77
2022/09/22 05:47:40;;;;;;;9.30;5.72;;;;;;;11.95;66.19;100267.44;4350025;32;34360;-77
2022/09/22 05:50:09;;;;;;;11.30;6.80;;;;;;;12.61;63.29;100268.50;4349954;32;33739;-82
2022/09/22 05:52:36;;;;;;;7.70;5.45;;;;;;;13.16;62.06;100266.81;4349892;32;33747;-77
2022/09/22 05:55:04;;;;;;;9.45;5.80;;;;;;;13.62;59.98;100264.63;4363116;32;34222;-84
2022/09/22 05:57:31;;;;;;;7.43;5.37;;;;;;;13.74;60.31;100261.78;4350192;32;33772;-78
2022/09/22 05:59:59;;;;;;;7.12;5.00;;;;;;;13.43;62.10;100268.78;4349576;32;33660;-78
2022/09/22 06:02:27;;;;;;;7.85;4.72;;;;;;;14.17;59.07;100262.72;4357941;32;34142;-83
2022/09/22 06:04:54;;;;;;;6.25;4.70;;;;;;;14.47;57.55;100261.28;4348713;33;33944;-77
2022/09/22 06:07:24;;;;;;;7.07;4.35;;;;;;;14.64;56.67;100259.25;4352910;32;33413;-77
2022/09/22 06:09:52;;;;;;;6.72;4.18;;;;;;;14.73;56.76;100263.16;4360314;32;33896;-82
2022/09/22 06:12:20;;;;;;;6.70;4.50;;;;;;;15.08;54.80;100261.72;4372208;32;35082;-77
2022/09/22 06:14:47;;;;;;;6.65;4.40;;;;;;;14.92;55.72;100265.44;4378287;32;35010;-83
2022/09/22 06:17:15;;;;;;;5.68;4.28;;;;;;;15.00;54.93;100269.59;4361480;32;32405;-77
2022/09/22 06:19:48;;;;;;;5.40;4.20;;;;;;;14.83;56.53;100269.75;4360694;32;34077;-75
2022/09/22 06:22:16;;;;;;;6.90;4.10;;;;;;;14.32;58.24;100270.22;4359910;32;34288;-82
2022/09/22 06:24:44;;;;;;;6.43;4.80;;;;;;;14.34;59.95;100276.22;4362293;32;34313;-82
2022/09/22 06:27:11;;;;;;;6.47;4.60;;;;;;;14.45;59.40;100272.50;4362780;32;34454;-77
2022/09/22 06:29:40;;;;;;;6.07;4.47;;;;;;;14.42;58.87;100278.47;4363049;32;33974;-85
2022/09/22 06:32:09;;;;;;;7.28;4.50;;;;;;;14.02;61.06;100276.22;4363156;32;34353;-83
2022/09/22 06:34:36;;;;;;;5.57;3.85;;;;;;;14.73;57.36;100274.09;4362823;32;33950;-86
2022/09/22 06:37:07;;;;;;;5.07;3.80;;;;;;;15.15;54.97;100278.69;4349079;32;33693;-77
2022/09/22 06:39:36;;;;;;;5.93;4.30;;;;;;;14.99;55.66;100271.50;4362648;32;34830;-86
2022/09/22 06:42:04;;;;;;;6.35;4.37;;;;;;;15.22;55.97;100275.69;4362469;32;34097;-76
2022/09/22 06:44:32;;;;;;;5.07;4.12;;;;;;;15.64;53.70;100279.41;4363029;32;34175;-84
2022/09/22 06:47:04;;;;;;;6.65;4.47;;;;;;;15.45;55.51;100282.62;4362356;32;33478;-77
2022/09/22 06:49:31;;;;;;;6.22;4.55;;;;;;;14.42;59.02;100273.00;4363069;32;33789;-85
2022/09/22 06:51:58;;;;;;;4.95;4.03;;;;;;;13.70;60.81;100272.38;4362605;32;34273;-82
2022/09/22 06:54:26;;;;;;;6.05;4.28;;;;;;;14.65;57.98;100269.12;4347900;33;33985;-77
2022/09/22 06:56:54;;;;;;;6.15;4.18;;;;;;;14.84;57.96;100274.97;4351854;32;33833;-81
2022/09/22 06:59:21;;;;;;;5.90;4.20;;;;;;;15.33;56.23;100277.41;4350571;32;33991;-77
2022/09/22 07:01:49;;;;;;;5.30;3.85;;;;;;;15.02;56.89;100278.34;4361656;32;34054;-81
2022/09/22 07:04:18;;;;;;;6.15;4.28;;;;;;;14.90;56.51;100273.91;4360314;32;34038;-81
2022/09/22 07:06:45;;;;;;;5.80;3.65;;;;;;;15.74;55.08;100279.47;4361560;32;33709;-82
2022/09/22 07:09:13;;;;;;;4.78;3.67;;;;;;;15.33;56.87;100276.56;4356921;32;34706;-77
2022/09/22 07:11:42;;;;;;;4.28;3.70;;;;;;;14.54;58.57;100273.66;4361480;32;34007;-81
2022/09/22 07:14:11;;;;;;;5.35;3.80;;;;;;;14.81;58.78;100282.88;4355013;32;34073;-81
2022/09/22 07:16:39;;;;;;;6.53;4.00;;;;;;;15.66;56.42;100283.53;4357922;32;33729;-80
2022/09/22 07:19:07;;;;;;;6.30;4.45;;;;;;;15.35;57.27;100283.41;4350253;32;34093;-81
2022/09/22 07:21:36;;;;;;;4.80;3.70;;;;;;;15.69;54.80;100280.25;4358658;32;33953;-81
2022/09/22 07:24:07;;;;;;;6.95;3.50;;;;;;;14.65;59.37;100273.75;4353531;32;34215;-80
2022/09/22 07:26:37;;;;;;;5.07;3.50;;;;;;;15.08;58.01;100280.84;4348980;32;33358;-84
2022/09/22 07:29:10;;;;;;;6.20;3.53;;;;;;;14.80;57.07;100273.03;4360461;32;34129;-80
2022/09/22 07:31:40;;;;;;;4.97;3.60;;;;;;;15.14;58.79;100268.00;4357717;32;34256;-83
2022/09/22 07:34:08;;;;;;;4.68;3.08;;;;;;;15.68;55.53;100275.03;4362285;32;34375;-79
2022/09/22 07:36:38;;;;;;;4.53;3.50;;;;;;;14.98;58.54;100278.03;4361130;32;34166;-83
2022/09/22 07:39:09;;;;;;;6.25;3.58;;;;;;;15.56;58.29;100278.03;4362040;32;34703;-79
2022/09/22 07:41:41;;;;;;;4.45;3.20;;;;;;;14.94;57.90;100279.66;4361797;32;35000;-80
2022/09/22 07:46:58;;;;;;;4.80;3.20;;;;;;;14.55;59.43;100279.97;4361656;32;33794;-79
2022/09/22 07:49:26;;;;;;;5.40;3.03;;;;;;;15.69;56.97;100282.97;4352875;32;33781;-84
2022/09/22 07:51:56;;;;;;;7.47;3.97;;;;;;;15.81;55.90;100292.88;4348377;32;34202;-85
2022/09/22 07:54:24;;;;;;;6.03;3.33;;;;;;;15.38;56.95;100285.63;4340350;33;34252;-82
2022/09/22 07:56:56;;;;;;;7.03;4.05;;;;;;;15.53;56.68;100282.13;4344147;32;33462;-83
2022/09/22 07:59:24;;;;;;;4.68;3.50;;;;;;;15.24;56.79;100283.63;4359378;32;33854;-82
2022/09/22 08:01:52;;;;;;;5.78;3.65;;;;;;;15.14;58.03;100279.78;4354506;32;34289;-85
2022/09/22 08:04:25;;;;;;;4.28;3.37;;;;;;;15.95;55.34;100280.31;4360895;32;34360;-86
2022/09/22 08:06:56;;;;;;;4.82;3.42;;;;;;;15.41;57.11;100287.00;4348834;32;33668;-76
2022/09/22 08:09:25;;;;;;;5.00;3.20;;;;;;;16.29;54.89;100286.09;4348268;32;34069;-85
2022/09/22 08:11:54;;;;;;;5.22;3.45;;;;;;;16.03;57.24;100284.44;4361171;32;34134;-78
2022/09/22 08:14:22;;;;;;;4.57;3.55;;;;;;;16.30;54.97;100279.53;4360404;32;34268;-82
2022/09/22 08:16:52;;;;;;;5.75;3.83;;;;;;;16.50;53.43;100284.19;4360394;32;32133;-85
2022/09/22 08:19:22;;;;;;;5.30;3.55;;;;;;;16.54;52.49;100290.75;4359761;32;34755;-77
2022/09/22 08:21:52;;;;;;;6.47;3.22;;;;;;;16.79;51.49;100292.62;4352674;32;34178;-83
2022/09/22 08:24:20;;;;;;;5.72;3.75;;;;;;;15.95;54.63;100289.34;4336994;32;34262;-84
2022/09/22 08:26:51;;;;;;;5.45;3.87;;;;;;;15.96;55.01;100298.37;4335394;32;33876;-86
2022/09/22 08:29:19;;;;;;;4.87;3.60;;;;;;;16.49;52.80;100301.69;4347533;32;33833;-86
2022/09/22 08:31:47;;;;;;;4.55;3.37;;;;;;;16.02;56.18;100296.47;4334397;32;34008;-83
2022/09/22 08:34:16;;;;;;;4.45;3.42;;;;;;;15.75;55.05;100295.59;4352416;32;34816;-84
2022/09/22 08:36:47;;;;;;;6.07;3.75;;;;;;;16.47;52.11;100287.47;4353165;32;33702;-77
2022/09/22 08:39:16;;;;;;;5.93;3.62;;;;;;;16.08;54.21;100293.47;4348364;33;33992;-82
2022/09/22 08:41:46;;;;;;;5.32;3.80;;;;;;;16.17;53.09;100291.84;4348352;33;34684;-82
2022/09/22 08:44:24;;;;;;;4.72;3.80;;;;;;;16.43;52.98;100289.09;4354061;32;34377;-79
2022/09/22 08:46:53;;;;;;;4.43;3.40;;;;;;;16.18;53.29;100287.19;4335431;33;34382;-85
2022/09/22 08:52:40;;;;;;;4.87;3.45;;;;;;;16.56;54.15;100282.25;4343284;33;34969;-79
2022/09/22 08:55:23;;;;;;;4.35;2.90;;;;;;;17.22;51.90;100278.56;4347821;33;34946;-79
2022/09/22 08:58:25;;;;;;;3.53;2.60;;;;;;;16.67;50.25;100267.44;4352774;32;33477;-86
2022/09/22 09:01:25;;;;;;;3.47;2.45;;;;;;;17.75;48.12;100270.63;4347162;32;33960;-82
2022/09/22 09:04:00;;;;;;;3.00;2.25;;;;;;;17.17;48.08;100279.41;4338333;33;34287;-78
2022/09/22 09:06:38;;;;;;;;;;;;;;;17.04;49.00;100279.16;4338402;33;34943;-77
2022/09/22 09:09:19;;;;;;;3.37;2.40;;;;;;;16.80;47.68;100277.03;4344740;33;34435;-79
2022/09/22 09:11:59;;;;;;;5.30;2.37;;;;;;;16.25;51.77;100278.72;4325431;33;33857;-77
2022/09/22 09:14:26;;;;;;;3.80;2.85;;;;;;;17.07;50.08;100282.19;4334514;33;34137;-80
2022/09/22 09:17:09;;;;;;;3.42;2.42;;;;;;;16.75;49.89;100282.50;4348207;33;34266;-81
2022/09/22 09:19:39;;;;;;;3.53;2.17;;;;;;;16.69;47.47;100276.19;4334110;33;33721;-81
2022/09/22 09:22:28;;;;;;;2.80;2.00;;;;;;;17.83;47.07;100267.31;4335534;33;34860;-77
2022/09/22 09:25:08;;;;;;;3.25;2.33;;;;;;;18.23;44.97;100270.06;4331086;33;34415;-78
2022/09/22 09:27:57;;;;;;;3.10;2.05;;;;;;;17.53;48.50;100271.00;4337821;33;33885;-77
2022/09/22 09:30:24;;;;;;;2.92;1.90;;;;;;;17.39;46.38;100264.50;4354447;32;33449;-82
2022/09/22 09:32:56;;;;;;;2.10;1.77;;;;;;;17.59;45.72;100269.88;4341784;33;32461;-82
2022/09/22 09:35:31;;;;;;;1.60;1.50;;;;;;;18.26;43.93;100271.41;4346362;32;34138;-82
2022/09/22 09:38:01;;;;;;;1.70;1.40;;;;;;;17.19;41.45;100271.72;4340303;33;34309;-79
2022/09/22 09:40:31;;;;;;;2.40;1.87;;;;;;;17.25;41.98;100272.50;4324654;33;33543;-81
2022/09/22 09:43:03;;;;;;;2.00;1.60;;;;;;;17.37;45.76;100269.47;4331142;33;34025;-81
2022/09/22 09:45:50;;;;;;;2.40;1.90;;;;;;;17.10;45.25;100275.31;4335758;33;34153;-82
2022/09/22 09:48:32;;;;;;;4.60;1.90;;;;;;;17.15;43.98;100278.06;4346164;33;35088;-78
2022/09/22 09:51:02;;;;;;;2.45;1.92;;;;;;;17.19;44.88;100270.87;4345791;32;33572;-78
2022/09/22 09:53:41;;;;;;;3.03;1.80;;;;;;;16.94;45.16;100272.62;4335859;33;33990;-82
2022/09/22 09:56:24;;;;;;;2.17;1.70;;;;;;;16.77;46.40;100272.91;4344122;33;34037;-77
2022/09/22 10:01:45;;;;;;;3.17;2.08;;;;;;;17.62;46.78;100268.50;4337108;32;33709;-78
2022/09/22 10:04:36;;;;;;;2.80;2.10;;;;;;;17.10;45.75;100275.31;4339407;32;33716;-79
2022/09/22 10:07:15;;;;;;;3.47;2.08;;;;;;;16.58;48.34;100269.91;4338247;32;35087;-78
2022/09/22 10:09:43;;;;;;;3.42;2.30;;;;;;;16.28;47.12;100264.47;4337023;33;35006;-77
2022/09/22 10:12:22;;;;;;;2.60;1.87;;;;;;;16.19;48.50;100265.00;4338917;32;33673;-80
2022/09/22 10:14:52;;;;;;;2.72;2.05;;;;;;;16.13;48.17;100265.28;4342401;33;34819;-80
2022/09/22 10:17:27;;;;;;;2.42;2.00;;;;;;;16.35;48.41;100271.31;4358055;32;34229;-79
2022/09/22 10:20:15;;;;;;;3.08;2.45;;;;;;;16.89;49.40;100269.91;4346251;32;33961;-78
2022/09/22 10:22:43;;;;;;;4.32;2.40;;;;;;;17.52;47.28;100263.09;4350508;32;34681;-85
2022/09/22 10:25:32;;;;;;;5.05;2.53;;;;;;;17.85;44.83;100271.69;4360547;32;34708;-82
2022/09/22 10:28:05;;;;;;;2.42;2.15;;;;;;;18.00;45.65;100272.41;4349441;32;34046;-83
2022/09/22 10:30:36;;;;;;;4.28;2.62;;;;;;;17.47;46.71;100272.13;4357628;32;35000;-83
2022/09/22 10:33:05;;;;;;;3.83;2.25;;;;;;;17.18;48.50;100274.75;4356314;32;33777;-82
2022/09/22 10:35:34;;;;;;;3.92;2.33;;;;;;;17.78;45.25;100272.00;4361630;32;33962;-72
2022/09/22 10:38:09;;;;;;;2.25;1.95;;;;;;;18.36;45.63;100268.56;4348064;32;33405;-78
2022/09/22 10:40:39;;;;;;;3.12;1.90;;;;;;;18.26;44.45;100257.66;4353346;32;34239;-83
2022/09/22 10:43:19;;;;;;;3.35;1.80;;;;;;;18.27;45.65;100257.34;4348786;32;33469;-77
2022/09/22 10:46:04;;;;;;;4.97;2.08;;;;;;;17.88;44.20;100252.72;4341550;32;34014;-78
2022/09/22 10:48:55;;;;;;;2.42;1.87;;;;;;;18.07;43.50;100254.78;4342006;32;34985;-80
2022/09/22 10:51:41;;;;;;;3.17;1.95;;;;;;;17.86;43.23;100254.13;4351692;32;34840;-75
2022/09/22 10:54:18;;;;;;;3.08;2.28;;;;;;;17.99;44.70;100245.22;4354248;32;33305;-78
2022/09/22 10:56:49;;;;;;;2.45;1.85;;;;;;;19.20;41.02;100247.09;4357996;32;33873;-80
2022/09/22 10:59:19;;;;;;;2.78;1.73;;;;;;;18.78;41.94;100232.16;4347951;32;33968;-80
2022/09/22 11:01:59;;;;;;;2.60;2.03;;;;;;;19.47;40.87;100238.19;4357895;32;34175;-75
2022/09/22 11:04:42;;;;;;;1.77;1.58;;;;;;;19.94;38.37;100232.06;4354657;32;33843;-79
2022/09/22 11:13:49;;;;;;;2.10;1.77;;;;;;;18.60;43.04;100219.97;4360276;32;34892;-76
2022/09/22 11:16:23;;;;;;;2.25;1.70;;;;;;;18.90;39.96;100223.53;4344958;33;33933;-79
2022/09/22 11:19:12;;;;;;;2.28;1.90;;;;;;;18.79;41.83;100214.59;4354514;32;33938;-75
2022/09/22 11:21:56;;;;;;;2.28;1.73;;;;;;;18.73;43.07;100223.97;4355012;32;34156;-80
2022/09/22 11:24:26;;;;;;;3.60;2.25;;;;;;;18.32;42.03;100213.37;4334760;32;34437;-77
2022/09/22 11:26:58;;;;;;;3.37;2.22;;;;;;;18.71;41.48;100209.69;4357994;32;33904;-77
2022/09/22 11:29:32;;;;;;;3.03;1.83;;;;;;;18.52;42.16;100208.78;4349097;32;33757;-78
2022/09/22 11:32:22;;;;;;;2.30;2.03;;;;;;;18.39;41.35;100207.53;4356209;32;34301;-76
2022/09/22 11:35:01;;;;;;;2.25;1.75;;;;;;;19.32;43.72;100216.41;4354395;32;33998;-78
2022/09/22 11:37:51;;;;;;;1.92;1.60;;;;;;;19.55;40.12;100198.19;4347688;32;33696;-77
2022/09/22 11:40:19;;;;;;;3.65;2.05;;;;;;;20.50;38.25;100195.28;4350079;32;34160;-80
2022/09/22 11:43:10;;;;;;;2.55;1.87;;;;;;;20.55;37.00;100194.34;4357157;32;34995;-75
2022/09/22 11:45:56;;;;;;;2.45;2.00;;;;;;;20.03;38.92;100183.44;4361565;32;34965;-81
2022/09/22 11:48:56;;;;;;;2.75;1.90;;;;;;;19.62;38.53;100187.62;4346560;32;33601;-78
2022/09/22 11:51:35;;;;;;;3.78;2.08;;;;;;;19.90;38.99;100184.22;4353359;32;35398;-84
2022/09/22 11:54:08;;;;;;;2.30;1.83;;;;;;;19.18;39.92;100179.72;4346471;32;35204;-76
2022/09/22 11:56:45;;;;;;;2.10;1.80;;;;;;;19.67;39.62;100176.56;4352621;32;35048;-76
2022/09/22 11:59:27;;;;;;;2.15;1.60;;;;;;;19.15;39.75;100175.63;4360725;32;33307;-76
2022/09/22 12:01:56;;;;;;;2.00;1.73;;;;;;;18.41;40.17;100166.88;4347115;32;34721;-77
2022/09/22 12:04:49;;;;;;;2.42;1.73;;;;;;;17.94;40.19;100163.72;4350141;32;34184;-79
2022/09/22 12:07:44;;;;;;;1.98;1.75;;;;;;;17.93;40.65;100172.28;4347305;32;33955;-71
2022/09/22 12:10:35;;;;;;;1.73;1.60;;;;;;;17.95;41.11;100161.81;4335335;32;34552;-82